Time;durP1;ratioP1;P1;durP2;ratioP2;P2;SDS_P1;SDS_P2;PMS_P1;PMS_P2;Temp;Humidity;BMP_temperature;BMP_pressure;BME280_temperature;BME280_humidity;BME280_pressure;Samples;Min_cycle;Max_cycle;Signal;HPM_P1;HPM_P2
2022/07/24 00:01:25;;;;;;;11.48;6.53;;;;;;;24.64;50.71;94605.19;5073127;28;20201;-64
2022/07/24 00:03:50;;;;;;;11.98;6.20;;;;;;;24.47;50.93;94591.97;5074784;28;20189;-63
2022/07/24 00:06:16;;;;;;;12.32;5.93;;;;;;;24.29;50.48;94599.75;5074974;28;20563;-62
2022/07/24 00:08:41;;;;;;;12.93;6.80;;;;;;;24.08;51.09;94590.56;5072988;28;20185;-64
2022/07/24 00:11:07;;;;;;;11.18;6.40;;;;;;;24.10;51.32;94592.94;5073535;28;20212;-64
2022/07/24 00:13:33;;;;;;;13.93;6.10;;;;;;;24.07;50.55;94594.16;5074062;28;20733;-61
2022/07/24 00:15:59;;;;;;;12.60;6.60;;;;;;;23.95;50.51;94597.66;5074909;28;20224;-61
2022/07/24 00:18:24;;;;;;;10.50;6.40;;;;;;;23.92;51.36;94583.28;5074506;28;20608;-63
2022/07/24 00:20:50;;;;;;;11.52;6.38;;;;;;;23.93;51.58;94600.47;5073442;28;20216;-63
2022/07/24 00:23:16;;;;;;;11.13;6.00;;;;;;;24.09;50.29;94618.13;5074380;28;20621;-63
2022/07/24 00:25:41;;;;;;;10.45;6.25;;;;;;;24.17;50.48;94617.06;5073847;28;20219;-63
2022/07/24 00:28:07;;;;;;;9.32;6.40;;;;;;;24.11;49.86;94607.53;5073530;28;20196;-63
2022/07/24 00:30:33;;;;;;;13.85;6.70;;;;;;;24.09;50.29;94605.16;5073529;28;20350;-62
2022/07/24 00:32:58;;;;;;;15.18;6.90;;;;;;;24.02;50.32;94604.38;5074418;28;20253;-61
2022/07/24 00:35:24;;;;;;;10.45;5.90;;;;;;;23.86;50.62;94602.31;5073429;28;20262;-63
2022/07/24 00:37:49;;;;;;;10.88;6.57;;;;;;;23.79;50.82;94600.78;5073710;28;20184;-63
2022/07/24 00:40:16;;;;;;;11.18;6.28;;;;;;;23.84;50.08;94595.72;5073918;28;20267;-62
2022/07/24 00:42:43;;;;;;;11.65;6.15;;;;;;;23.78;50.84;94591.38;5055620;28;20193;-62
2022/07/24 00:45:10;;;;;;;15.57;6.22;;;;;;;23.72;50.23;94598.22;5072869;28;20215;-63
2022/07/24 00:47:36;;;;;;;10.45;6.00;;;;;;;23.85;50.49;94605.13;5073643;28;20181;-63
2022/07/24 00:50:04;;;;;;;7.82;5.75;;;;;;;24.06;49.99;94602.97;5073003;28;20554;-60
2022/07/24 00:52:30;;;;;;;10.23;6.57;;;;;;;23.98;50.50;94592.00;5072666;28;20189;-63
2022/07/24 00:54:56;;;;;;;15.63;6.70;;;;;;;24.01;50.11;94597.59;5072371;28;20219;-63
2022/07/24 00:57:21;;;;;;;10.80;5.63;;;;;;;24.07;49.63;94614.16;5072674;28;20196;-63
2022/07/24 00:59:47;;;;;;;14.38;6.50;;;;;;;23.94;50.14;94615.03;5073032;28;20204;-61
2022/07/24 01:02:12;;;;;;;14.43;7.40;;;;;;;23.95;50.46;94605.44;5072774;28;20295;-63
2022/07/24 01:04:39;;;;;;;12.77;7.18;;;;;;;24.20;49.79;94619.22;5072817;28;20284;-61
2022/07/24 01:07:07;;;;;;;14.10;6.25;;;;;;;23.82;49.45;94613.31;5072447;28;20205;-64
2022/07/24 01:09:33;;;;;;;11.27;6.85;;;;;;;23.63;50.50;94601.28;5073579;28;20340;-64
2022/07/24 01:11:59;;;;;;;16.50;6.80;;;;;;;23.42;51.76;94583.47;5054122;28;20243;-61
2022/07/24 01:14:25;;;;;;;15.52;6.65;;;;;;;23.40;52.22;94572.50;5072993;28;20251;-59
2022/07/24 01:16:51;;;;;;;13.20;6.07;;;;;;;23.39;52.48;94574.31;5072848;28;20224;-63
2022/07/24 01:19:17;;;;;;;11.52;6.43;;;;;;;23.51;51.53;94590.81;5072191;28;20569;-60
2022/07/24 01:21:51;;;;;;;15.88;7.10;;;;;;;23.26;52.50;94582.94;5072308;28;20291;-62
2022/07/24 01:24:18;;;;;;;8.77;6.03;;;;;;;23.04;52.84;94589.44;5071021;28;20254;-64
2022/07/24 01:26:44;;;;;;;21.05;7.40;;;;;;;22.87;52.81;94577.94;5054202;28;20303;-61
2022/07/24 01:29:12;;;;;;;12.38;6.18;;;;;;;22.63;54.14;94559.72;5070550;28;20217;-60
2022/07/24 01:31:37;;;;;;;15.95;7.28;;;;;;;22.62;54.21;94556.34;5072178;28;20239;-63
2022/07/24 01:34:05;;;;;;;14.20;6.90;;;;;;;22.54;54.24;94556.53;5071780;28;20185;-60
2022/07/24 01:36:31;;;;;;;12.43;6.68;;;;;;;22.51;54.38;94546.56;5071827;28;20212;-63
2022/07/24 01:38:56;;;;;;;9.73;6.68;;;;;;;22.44;54.87;94551.78;5071792;28;20199;-65
2022/07/24 01:41:22;;;;;;;12.00;6.28;;;;;;;22.37;54.54;94555.38;5071836;28;20201;-61
2022/07/24 01:43:47;;;;;;;12.82;6.68;;;;;;;22.38;54.80;94554.41;5072609;28;20181;-64
2022/07/24 01:46:13;;;;;;;12.10;6.60;;;;;;;22.23;55.20;94548.66;5072567;28;20346;-62
2022/07/24 01:48:41;;;;;;;10.73;7.38;;;;;;;22.34;54.95;94548.03;5054827;28;20193;-63
2022/07/24 01:51:07;;;;;;;10.95;6.55;;;;;;;22.29;55.22;94553.03;5071707;28;20212;-63
2022/07/24 01:53:34;;;;;;;12.68;7.20;;;;;;;22.32;55.21;94543.03;5071971;28;20181;-61
2022/07/24 01:56:00;;;;;;;11.00;6.35;;;;;;;22.33;55.21;94542.06;5072515;28;20303;-63
2022/07/24 01:58:26;;;;;;;11.07;6.72;;;;;;;22.27;55.20;94545.47;5071405;28;20181;-63
2022/07/24 02:00:51;;;;;;;15.63;6.50;;;;;;;22.28;54.99;94547.03;5071872;28;20209;-63
2022/07/24 02:03:18;;;;;;;13.20;6.82;;;;;;;22.19;55.33;94543.09;5053371;28;20621;-63
2022/07/24 02:05:43;;;;;;;16.65;6.80;;;;;;;22.13;55.34;94546.50;5071315;28;20209;-64
2022/07/24 02:08:08;;;;;;;10.52;6.55;;;;;;;22.16;55.42;94553.84;5071543;28;20272;-61
2022/07/24 02:10:34;;;;;;;12.18;6.47;;;;;;;22.20;55.25;94549.84;5071919;28;20232;-61
2022/07/24 02:13:00;;;;;;;11.70;6.40;;;;;;;22.25;54.87;94554.44;5071824;28;20181;-64
2022/07/24 02:15:26;;;;;;;16.70;6.90;;;;;;;22.17;54.87;94557.22;5072398;28;20217;-60
2022/07/24 02:17:54;;;;;;;13.02;6.85;;;;;;;22.10;55.17;94549.47;5072118;28;20290;-64
2022/07/24 02:20:20;;;;;;;11.10;6.50;;;;;;;22.11;54.90;94552.88;5070723;28;20601;-64
2022/07/24 02:22:46;;;;;;;13.43;7.00;;;;;;;22.19;55.41;94553.44;5070787;28;20177;-63
2022/07/24 02:25:13;;;;;;;13.90;7.00;;;;;;;22.25;54.98;94549.25;5071675;28;20204;-64
2022/07/24 02:27:39;;;;;;;13.60;6.63;;;;;;;22.22;54.80;94557.44;5071306;28;20673;-63
2022/07/24 02:30:09;;;;;;;10.60;6.68;;;;;;;22.28;54.72;94554.81;5071785;28;20271;-63
2022/07/24 02:32:35;;;;;;;11.23;6.13;;;;;;;22.27;54.60;94555.81;5071277;28;20192;-63
2022/07/24 02:35:00;;;;;;;12.00;6.72;;;;;;;22.34;54.85;94551.41;5070551;28;20682;-63
2022/07/24 02:37:26;;;;;;;17.23;6.78;;;;;;;22.43;53.91;94564.94;5071980;28;20177;-62
2022/07/24 02:39:52;;;;;;;11.13;6.68;;;;;;;22.38;53.84;94567.34;5071514;28;20208;-62
2022/07/24 02:42:17;;;;;;;17.02;6.82;;;;;;;22.32;54.37;94557.81;5071172;28;20258;-63
2022/07/24 02:44:42;;;;;;;12.93;6.20;;;;;;;22.30;55.33;94560.59;5071446;28;20189;-60
2022/07/24 02:47:08;;;;;;;11.27;6.15;;;;;;;22.30;54.82;94570.94;5070969;28;20638;-63
2022/07/24 02:49:35;;;;;;;9.45;6.03;;;;;;;22.41;55.25;94557.38;5072001;28;20564;-63
2022/07/24 02:52:01;;;;;;;14.40;6.20;;;;;;;22.39;53.79;94576.72;5071167;28;20680;-62
2022/07/24 02:54:26;;;;;;;13.30;7.30;;;;;;;22.33;55.04;94561.97;5071336;28;20197;-63
2022/07/24 02:56:52;;;;;;;12.93;6.82;;;;;;;22.36;54.71;94566.75;5070926;28;20200;-60
2022/07/24 02:59:17;;;;;;;11.27;6.20;;;;;;;22.47;55.15;94561.75;5072804;28;20265;-63
2022/07/24 03:01:42;;;;;;;10.13;6.88;;;;;;;22.51;55.25;94556.94;5071296;28;20325;-61
2022/07/24 03:04:08;;;;;;;11.75;6.68;;;;;;;22.69;54.11;94582.22;5072003;28;20650;-64
2022/07/24 03:06:34;;;;;;;14.50;6.70;;;;;;;22.59;53.57;94584.44;5070973;28;20701;-63
2022/07/24 03:09:00;;;;;;;9.00;6.63;;;;;;;22.59;54.10;94576.66;5070442;28;20173;-61
2022/07/24 03:11:26;;;;;;;9.93;6.25;;;;;;;22.78;54.42;94576.59;5070763;28;20671;-64
2022/07/24 03:13:52;;;;;;;17.88;7.13;;;;;;;22.62;55.36;94561.53;5071409;28;20234;-62
2022/07/24 03:16:18;;;;;;;14.27;6.60;;;;;;;22.64;56.34;94540.56;5073138;28;20299;-60
2022/07/24 03:18:48;;;;;;;12.00;7.00;;;;;;;22.82;55.49;94553.66;5074252;28;20241;-63
2022/07/24 03:21:14;;;;;;;13.90;7.55;;;;;;;22.39;56.94;94530.88;5073896;28;20696;-62
2022/07/24 03:23:40;;;;;;;13.00;6.88;;;;;;;22.36;57.23;94538.28;5074875;28;20208;-63
2022/07/24 03:26:06;;;;;;;11.27;6.93;;;;;;;22.29;57.48;94543.47;5073905;28;20221;-63
2022/07/24 03:28:31;;;;;;;19.30;7.50;;;;;;;22.47;57.10;94546.19;5072766;28;20185;-63
2022/07/24 03:30:57;;;;;;;10.63;7.00;;;;;;;22.75;56.60;94561.47;5074118;28;20208;-63
2022/07/24 03:33:22;;;;;;;14.98;7.47;;;;;;;22.92;55.50;94569.56;5075052;28;20272;-62
2022/07/24 03:35:48;;;;;;;9.57;6.90;;;;;;;22.88;54.89;94579.56;5073841;28;20285;-61
2022/07/24 03:38:21;;;;;;;14.93;7.60;;;;;;;22.66;55.50;94577.44;5073628;28;20220;-62
2022/07/24 03:40:47;;;;;;;15.43;7.18;;;;;;;22.56;56.27;94567.50;5073280;28;20221;-64
2022/07/24 03:43:13;;;;;;;13.73;7.05;;;;;;;22.48;56.45;94558.13;5073464;28;20222;-63
2022/07/24 03:45:38;;;;;;;11.15;7.18;;;;;;;22.25;57.24;94551.84;5073165;28;20599;-63
2022/07/24 03:48:04;;;;;;;12.90;6.85;;;;;;;22.26;58.08;94561.22;5073267;28;20630;-62
2022/07/24 03:50:30;;;;;;;12.95;7.68;;;;;;;22.32;57.75;94557.81;5073067;28;20212;-63
2022/07/24 03:52:55;;;;;;;10.43;7.35;;;;;;;22.39;57.65;94558.56;5073092;28;20633;-63
2022/07/24 03:55:21;;;;;;;13.77;7.68;;;;;;;22.29;58.66;94551.22;5072805;28;20236;-63
2022/07/24 03:57:46;;;;;;;14.50;7.28;;;;;;;22.46;58.31;94560.13;5073309;28;20184;-65
2022/07/24 04:00:13;;;;;;;13.00;7.07;;;;;;;22.29;58.71;94553.03;5073296;28;20189;-64
2022/07/24 04:02:40;;;;;;;11.55;6.45;;;;;;;22.59;58.18;94550.75;5072063;28;20212;-63
2022/07/24 04:05:08;;;;;;;10.35;6.63;;;;;;;22.60;57.91;94555.75;5073249;28;20276;-63
2022/07/24 04:07:35;;;;;;;11.63;7.75;;;;;;;22.53;58.22;94550.56;5055679;28;20211;-60
2022/07/24 04:10:00;;;;;;;15.10;7.57;;;;;;;22.48;58.53;94550.34;5072936;28;20189;-60
2022/07/24 04:12:26;;;;;;;12.82;8.05;;;;;;;22.29;59.54;94532.31;5072750;28;20185;-61
2022/07/24 04:14:52;;;;;;;10.88;7.38;;;;;;;22.52;59.00;94543.75;5072699;28;20244;-61
2022/07/24 04:17:17;;;;;;;11.48;7.20;;;;;;;22.37;59.49;94545.81;5072923;28;20290;-63
2022/07/24 04:19:43;;;;;;;11.75;7.30;;;;;;;22.32;60.03;94543.03;5072843;28;20650;-63
2022/07/24 04:22:09;;;;;;;10.13;6.80;;;;;;;22.36;60.36;94543.44;5055060;28;20214;-63
2022/07/24 04:24:34;;;;;;;12.27;7.25;;;;;;;22.78;59.67;94561.06;5072995;28;20618;-63
2022/07/24 04:27:00;;;;;;;12.77;6.90;;;;;;;22.84;59.63;94562.81;5072044;28;20232;-60
2022/07/24 04:29:26;;;;;;;12.23;7.70;;;;;;;22.73;59.33;94566.03;5072737;28;20578;-60
2022/07/24 04:31:51;;;;;;;12.18;7.18;;;;;;;22.71;59.04;94575.03;5072888;28;20223;-63
2022/07/24 04:34:17;;;;;;;16.90;7.60;;;;;;;22.47;59.34;94566.91;5072886;28;20185;-63
2022/07/24 04:36:43;;;;;;;17.95;7.65;;;;;;;22.43;59.30;94570.13;5071201;28;20201;-63
2022/07/24 04:39:08;;;;;;;17.95;7.60;;;;;;;22.45;58.18;94578.47;5071746;28;20192;-63
2022/07/24 04:41:34;;;;;;;13.60;7.45;;;;;;;22.37;59.34;94571.75;5072679;28;20617;-63
2022/07/24 04:44:00;;;;;;;14.73;7.78;;;;;;;22.39;59.17;94568.94;5073272;28;20185;-63
2022/07/24 04:46:25;;;;;;;14.43;8.18;;;;;;;22.46;58.32;94580.88;5072788;28;20308;-61
2022/07/24 04:48:51;;;;;;;13.77;7.43;;;;;;;22.52;58.12;94584.47;5055172;28;20213;-65
2022/07/24 04:51:16;;;;;;;11.70;7.22;;;;;;;22.56;58.71;94580.47;5072400;28;20205;-63
2022/07/24 04:53:42;;;;;;;19.10;7.18;;;;;;;22.34;60.05;94566.94;5072478;28;20172;-63
2022/07/24 04:56:07;;;;;;;17.15;7.55;;;;;;;22.24;60.51;94574.34;5071847;28;20286;-63
2022/07/24 04:58:33;;;;;;;15.52;8.18;;;;;;;22.16;60.81;94563.44;5072716;28;20177;-62
2022/07/24 05:00:58;;;;;;;13.07;8.48;;;;;;;22.40;60.47;94573.91;5072225;28;20319;-63
2022/07/24 05:03:31;;;;;;;17.17;10.20;;;;;;;22.49;60.28;94571.91;5072302;28;20283;-63
2022/07/24 05:05:57;;;;;;;14.52;9.20;;;;;;;22.60;60.00;94586.06;5072604;28;20222;-62
2022/07/24 05:08:22;;;;;;;19.40;9.80;;;;;;;22.68;59.58;94586.63;5072073;28;20180;-63
2022/07/24 05:10:48;;;;;;;12.75;8.40;;;;;;;22.56;60.72;94583.03;5053686;28;20213;-63
2022/07/24 05:13:13;;;;;;;13.13;9.02;;;;;;;22.53;60.33;94591.22;5072787;28;20185;-63
2022/07/24 05:15:39;;;;;;;18.25;8.30;;;;;;;22.50;60.05;94602.00;5072473;28;20216;-62
2022/07/24 05:18:05;;;;;;;13.23;8.45;;;;;;;22.57;59.58;94597.59;5072014;28;20177;-62
2022/07/24 05:20:30;;;;;;;16.73;8.80;;;;;;;22.60;58.99;94610.19;5072356;28;20591;-64
2022/07/24 05:22:55;;;;;;;15.27;9.05;;;;;;;22.52;59.37;94594.81;5071742;28;20228;-64
2022/07/24 05:25:21;;;;;;;15.23;8.13;;;;;;;22.77;60.01;94593.16;5071907;28;20274;-64
2022/07/24 05:27:47;;;;;;;17.08;8.55;;;;;;;23.03;59.86;94597.41;5070427;28;20567;-63
2022/07/24 05:30:13;;;;;;;14.90;11.88;;;;;;;23.11;59.52;94602.38;5071876;28;20189;-63
2022/07/24 05:32:38;;;;;;;14.60;8.85;;;;;;;23.26;58.90;94608.88;5053692;28;20191;-64
2022/07/24 05:35:05;;;;;;;11.73;7.97;;;;;;;23.37;59.28;94604.88;5071697;28;20307;-63
2022/07/24 05:37:30;;;;;;;14.80;8.63;;;;;;;23.56;63.23;94593.53;5053364;28;20212;-63
2022/07/24 05:39:56;;;;;;;13.57;7.32;;;;;;;23.79;68.15;94631.94;5071358;28;20197;-62
2022/07/24 05:42:22;;;;;;;13.88;6.90;;;;;;;23.86;64.58;94658.63;5053141;28;20200;-61
2022/07/24 05:44:47;;;;;;;15.25;8.10;;;;;;;23.91;60.04;94715.94;5071757;28;20279;-61
2022/07/24 05:47:13;;;;;;;17.20;8.60;;;;;;;24.01;61.16;94698.09;5071747;28;20283;-61
2022/07/24 05:49:38;;;;;;;15.10;8.98;;;;;;;24.17;58.73;94741.78;5071328;28;20217;-61
2022/07/24 05:52:04;;;;;;;12.82;8.05;;;;;;;24.11;62.57;94659.47;5071176;28;20209;-60
2022/07/24 05:54:29;;;;;;;11.65;7.60;;;;;;;24.13;56.36;94745.81;5071169;28;20197;-61
2022/07/24 05:56:55;;;;;;;16.48;7.78;;;;;;;24.09;63.46;94609.53;5053018;28;20706;-60
2022/07/24 05:59:20;;;;;;;17.17;7.95;;;;;;;24.32;62.18;94653.88;5071126;28;20195;-60
2022/07/24 06:01:46;;;;;;;10.63;7.63;;;;;;;24.45;60.35;94677.19;5070933;28;20196;-60
2022/07/24 06:04:11;;;;;;;11.38;7.80;;;;;;;24.41;56.32;94727.19;5071232;28;20271;-62
2022/07/24 06:06:37;;;;;;;13.82;8.50;;;;;;;24.33;55.61;94750.84;5069560;28;20200;-62
2022/07/24 06:09:04;;;;;;;18.73;8.10;;;;;;;24.31;59.89;94654.91;5070925;28;20267;-62
2022/07/24 06:11:29;;;;;;;13.77;8.82;;;;;;;24.44;57.11;94711.19;5052975;28;20213;-62
2022/07/24 06:13:55;;;;;;;11.25;7.78;;;;;;;24.55;55.85;94726.06;5070700;28;20293;-62
2022/07/24 06:16:20;;;;;;;13.32;8.20;;;;;;;24.59;58.54;94681.25;5071211;28;20216;-60
2022/07/24 06:18:46;;;;;;;12.25;7.47;;;;;;;24.84;60.14;94666.44;5070840;28;20267;-62
2022/07/24 06:21:11;;;;;;;11.13;8.05;;;;;;;25.23;60.96;94653.97;5071437;28;20208;-61
2022/07/24 06:23:37;;;;;;;13.80;8.13;;;;;;;25.49;58.60;94690.09;5070690;28;20192;-63
2022/07/24 06:26:03;;;;;;;11.48;8.27;;;;;;;25.71;57.78;94697.19;5070828;28;20217;-63
2022/07/24 06:28:28;;;;;;;11.75;8.30;;;;;;;25.91;55.81;94719.56;5070685;28;20765;-63
2022/07/24 06:30:54;;;;;;;17.63;8.73;;;;;;;25.76;51.96;94787.69;5070754;28;20285;-64
2022/07/24 06:33:19;;;;;;;16.55;9.20;;;;;;;25.56;52.68;94761.09;5070915;28;20192;-64
2022/07/24 06:35:45;;;;;;;13.95;8.70;;;;;;;25.70;54.10;94731.28;5070689;28;20259;-64
2022/07/24 06:38:11;;;;;;;14.73;9.07;;;;;;;25.88;51.67;94774.75;5070754;28;20275;-63
2022/07/24 06:40:37;;;;;;;13.70;9.13;;;;;;;25.54;50.77;94776.97;5070794;28;20243;-63
2022/07/24 06:43:03;;;;;;;17.20;8.82;;;;;;;25.78;52.84;94741.38;5070803;28;20180;-64
2022/07/24 06:45:32;;;;;;;18.02;9.95;;;;;;;25.95;53.34;94723.31;5070341;28;20526;-64
2022/07/24 06:48:00;;;;;;;13.77;8.02;;;;;;;26.10;53.25;94721.16;5053101;28;20234;-63
2022/07/24 06:50:26;;;;;;;19.10;9.77;;;;;;;26.24;52.49;94746.75;5069908;28;20295;-64
2022/07/24 06:52:53;;;;;;;15.38;9.35;;;;;;;26.35;52.55;94737.38;5070327;28;20184;-63
2022/07/24 06:55:18;;;;;;;22.70;11.05;;;;;;;26.40;52.21;94740.91;5052693;28;20220;-62
2022/07/24 06:57:45;;;;;;;16.02;9.60;;;;;;;26.58;52.79;94725.16;5070482;28;20710;-59
2022/07/24 07:00:11;;;;;;;13.30;8.52;;;;;;;26.72;52.10;94738.03;5070368;28;20205;-60
2022/07/24 07:02:37;;;;;;;16.67;10.25;;;;;;;26.66;49.66;94785.84;5070033;28;20199;-60
2022/07/24 07:05:07;;;;;;;20.75;11.13;;;;;;;26.56;49.59;94784.56;5070061;28;20189;-60
2022/07/24 07:07:35;;;;;;;27.95;14.43;;;;;;;26.51;49.55;94774.03;5070456;28;20180;-64
2022/07/24 07:10:01;;;;;;;26.52;15.02;;;;;;;26.48;49.63;94769.25;5069750;28;20200;-64
2022/07/24 07:12:27;;;;;;;19.25;14.13;;;;;;;26.34;50.48;94744.41;5051978;28;20184;-64
2022/07/24 07:14:52;;;;;;;15.63;10.23;;;;;;;26.36;50.36;94744.97;5070056;28;20225;-63
2022/07/24 07:17:18;;;;;;;19.92;14.73;;;;;;;26.51;50.25;94753.19;5070046;28;20295;-64
2022/07/24 07:19:44;;;;;;;12.48;10.15;;;;;;;26.69;50.32;94748.88;5069822;28;20212;-64
2022/07/24 07:22:10;;;;;;;16.92;9.63;;;;;;;26.88;50.29;94745.16;5051967;28;20296;-64
2022/07/24 07:24:36;;;;;;;23.92;14.10;;;;;;;26.56;51.12;94721.22;5051976;28;20569;-65
2022/07/24 07:27:03;;;;;;;20.23;10.50;;;;;;;26.46;50.86;94740.00;5069995;28;20720;-63
2022/07/24 07:29:28;;;;;;;16.77;11.65;;;;;;;26.42;50.83;94731.03;5069660;28;20693;-64
2022/07/24 07:31:54;;;;;;;15.93;9.52;;;;;;;26.53;50.00;94739.91;5070067;28;20209;-63
2022/07/24 07:34:20;;;;;;;13.93;8.68;;;;;;;26.75;48.39;94776.69;5042115;22;20228;-63
2022/07/24 07:36:46;;;;;;;22.25;11.75;;;;;;;26.73;48.78;94763.06;5049699;28;20593;-64
2022/07/24 07:39:11;;;;;;;16.20;9.52;;;;;;;26.88;48.65;94763.44;5032900;28;20255;-64
2022/07/24 07:41:37;;;;;;;15.40;10.93;;;;;;;26.87;49.73;94738.34;5049946;28;20244;-64
2022/07/24 07:44:02;;;;;;;16.20;12.00;;;;;;;26.85;50.49;94722.13;5050095;28;20186;-63
2022/07/24 07:46:30;;;;;;;18.25;10.93;;;;;;;26.89;50.80;94718.84;5049720;28;20679;-64
2022/07/24 07:48:55;;;;;;;20.70;10.00;;;;;;;26.86;49.35;94753.22;5049994;28;20178;-64
2022/07/24 07:51:21;;;;;;;15.05;9.68;;;;;;;26.78;47.64;94789.31;5049622;28;20208;-63
2022/07/24 07:53:46;;;;;;;18.02;10.40;;;;;;;26.81;49.13;94740.06;5031825;28;20192;-63
2022/07/24 07:56:12;;;;;;;18.67;10.30;;;;;;;27.09;49.13;94745.38;5049395;28;20213;-63
2022/07/24 07:58:38;;;;;;;17.60;8.68;;;;;;;27.07;46.53;94793.63;5049313;28;20189;-62
2022/07/24 08:01:04;;;;;;;14.75;9.13;;;;;;;27.19;47.08;94782.13;5049932;28;20286;-63
2022/07/24 08:03:29;;;;;;;17.77;9.70;;;;;;;27.26;45.22;94815.97;5052784;28;20246;-63
2022/07/24 08:05:55;;;;;;;16.55;9.73;;;;;;;27.28;46.15;94795.66;5051263;28;20209;-63
2022/07/24 08:08:22;;;;;;;17.70;9.75;;;;;;;27.28;45.54;94808.69;5053528;28;20563;-61
2022/07/24 08:10:48;;;;;;;16.38;9.52;;;;;;;27.33;45.44;94808.81;5052651;28;20241;-61
2022/07/24 08:13:14;;;;;;;16.45;8.65;;;;;;;27.47;45.08;94815.41;5052594;28;20209;-61
2022/07/24 08:15:41;;;;;;;16.60;9.23;;;;;;;27.68;45.01;94814.78;5034521;28;20263;-63
2022/07/24 08:18:07;;;;;;;16.30;9.80;;;;;;;27.71;44.37;94824.00;5052677;28;20217;-61
2022/07/24 08:20:33;;;;;;;13.07;9.15;;;;;;;27.75;43.65;94839.00;5052465;28;20217;-61
2022/07/24 08:22:59;;;;;;;13.75;8.10;;;;;;;27.88;43.84;94830.06;5052676;28;20371;-61
2022/07/24 08:25:26;;;;;;;13.10;9.85;;;;;;;27.98;43.25;94852.03;5052542;28;20245;-61
2022/07/24 08:27:52;;;;;;;19.15;9.30;;;;;;;28.03;44.78;94809.50;5052386;28;20190;-61
2022/07/24 08:30:18;;;;;;;15.30;8.90;;;;;;;28.24;44.23;94807.00;5052280;28;20272;-60
2022/07/24 08:32:44;;;;;;;13.10;8.38;;;;;;;28.57;42.10;94861.25;5052534;28;20300;-60
2022/07/24 08:35:11;;;;;;;13.35;8.00;;;;;;;28.68;44.05;94817.72;5034368;28;20217;-61
2022/07/24 08:37:38;;;;;;;15.57;8.73;;;;;;;28.78;43.06;94823.94;5052507;28;20217;-61
2022/07/24 08:40:05;;;;;;;13.55;8.32;;;;;;;28.55;42.16;94844.16;5052409;28;20267;-64
2022/07/24 08:42:31;;;;;;;15.02;9.18;;;;;;;28.63;42.74;94836.75;5034380;28;20240;-65
2022/07/24 08:44:57;;;;;;;16.55;8.65;;;;;;;28.83;41.05;94867.69;5034324;28;20611;-63
2022/07/24 08:47:25;;;;;;;16.98;10.98;;;;;;;28.87;41.50;94856.53;5052271;28;20217;-64
2022/07/24 08:49:53;;;;;;;15.88;10.13;;;;;;;28.89;42.51;94824.88;5052302;28;20209;-64
2022/07/24 08:52:22;;;;;;;16.63;9.27;;;;;;;28.97;43.06;94804.31;5034154;28;20209;-65
2022/07/24 08:54:48;;;;;;;15.93;9.35;;;;;;;29.02;41.90;94841.06;5052185;28;20209;-67
2022/07/24 08:57:14;;;;;;;12.40;7.80;;;;;;;29.06;41.47;94841.38;5052075;28;20212;-64
2022/07/24 08:59:40;;;;;;;16.35;9.43;;;;;;;29.37;40.59;94856.50;5052127;28;20189;-64
2022/07/24 09:02:05;;;;;;;13.65;8.27;;;;;;;29.45;40.14;94850.88;5051997;28;20232;-63
2022/07/24 09:04:35;;;;;;;17.15;8.23;;;;;;;29.38;40.83;94841.59;5051802;28;20343;-64
2022/07/24 09:07:05;;;;;;;20.65;8.93;;;;;;;29.40;41.08;94834.28;5052188;28;20202;-64
2022/07/24 09:09:31;;;;;;;19.80;9.13;;;;;;;29.54;40.35;94838.94;5051845;28;20231;-63
2022/07/24 09:12:14;;;;;;;16.77;9.63;;;;;;;29.46;40.48;94831.50;5051627;28;20210;-65
2022/07/24 09:14:43;;;;;;;22.70;8.88;;;;;;;29.61;39.85;94844.78;5051416;28;20268;-65
2022/07/24 09:17:11;;;;;;;17.42;9.38;;;;;;;29.72;41.56;94801.19;5051727;28;20682;-65
2022/07/24 09:20:00;;;;;;;18.25;9.52;;;;;;;29.94;39.93;94843.94;5051847;28;20197;-65
2022/07/24 09:22:35;;;;;;;14.40;8.98;;;;;;;29.80;39.80;94838.25;5050566;28;20212;-64
2022/07/24 09:25:04;;;;;;;16.38;9.13;;;;;;;29.78;40.45;94832.47;5051535;28;20189;-64
2022/07/24 09:27:46;;;;;;;22.73;9.65;;;;;;;30.06;39.94;94833.31;5050311;28;20262;-66
2022/07/24 09:30:38;;;;;;;15.60;9.05;;;;;;;30.28;39.25;94850.59;5034761;28;20201;-64
2022/07/24 09:33:06;;;;;;;12.30;8.75;;;;;;;30.45;38.53;94855.78;5051676;28;20201;-64
2022/07/24 09:35:33;;;;;;;20.70;8.85;;;;;;;30.65;39.00;94848.91;5050994;28;20221;-64
2022/07/24 09:38:00;;;;;;;18.30;9.65;;;;;;;30.80;40.59;94814.13;5051124;28;20185;-64
2022/07/24 09:40:32;;;;;;;16.77;10.02;;;;;;;31.00;39.36;94837.16;5051609;28;20593;-65
2022/07/24 09:43:17;;;;;;;17.13;9.75;;;;;;;30.90;38.84;94837.88;5051208;28;20193;-64
2022/07/24 09:46:05;;;;;;;18.98;10.10;;;;;;;31.13;38.36;94852.50;5077722;22;20224;-64
2022/07/24 09:48:39;;;;;;;13.90;9.23;;;;;;;31.47;38.40;94845.13;5052829;28;20246;-65
2022/07/24 09:51:15;;;;;;;19.23;10.05;;;;;;;31.56;37.99;94846.19;5070995;28;20296;-64
2022/07/24 09:53:44;;;;;;;19.35;9.57;;;;;;;31.65;37.42;94850.75;5053137;28;20231;-65
2022/07/24 09:56:16;;;;;;;18.13;10.40;;;;;;;31.68;37.41;94844.97;5070956;28;20224;-65
2022/07/24 09:58:45;;;;;;;17.50;9.35;;;;;;;31.73;36.34;94852.09;5053483;28;20208;-65
2022/07/24 10:01:12;;;;;;;12.93;8.68;;;;;;;31.73;34.50;94862.59;5070513;28;20208;-63
2022/07/24 10:03:40;;;;;;;16.45;8.50;;;;;;;31.94;34.59;94853.78;5071091;28;20647;-64
2022/07/24 10:06:12;;;;;;;13.38;8.00;;;;;;;32.22;33.62;94871.81;5070970;28;20212;-63
2022/07/24 10:08:41;;;;;;;10.45;7.78;;;;;;;32.41;35.07;94801.81;5071193;28;20189;-65
2022/07/24 10:11:08;;;;;;;13.40;7.72;;;;;;;32.46;33.58;94844.00;5070814;28;20230;-65
2022/07/24 10:13:34;;;;;;;14.15;7.75;;;;;;;32.45;32.67;94842.38;5052803;28;20207;-66
2022/07/24 10:16:14;;;;;;;17.38;11.73;;;;;;;32.71;31.87;94859.00;5070464;28;20215;-64
2022/07/24 10:18:50;;;;;;;16.52;8.10;;;;;;;32.96;31.10;94861.69;5071141;28;20219;-65
2022/07/24 10:21:25;;;;;;;16.73;7.88;;;;;;;32.93;32.13;94828.72;5069437;28;20276;-65
2022/07/24 10:24:10;;;;;;;15.00;7.65;;;;;;;32.92;30.93;94848.25;5070978;28;20279;-64
2022/07/24 10:26:43;;;;;;;8.85;7.13;;;;;;;33.05;31.13;94834.56;5068759;28;20232;-61
2022/07/24 10:29:25;;;;;;;14.93;8.07;;;;;;;33.15;30.36;94844.28;5070150;28;20199;-60
2022/07/24 10:31:56;;;;;;;10.90;7.85;;;;;;;33.29;30.87;94829.50;5070345;28;20299;-61
2022/07/24 10:34:24;;;;;;;17.63;7.95;;;;;;;33.21;31.56;94800.28;5070473;28;20193;-62
2022/07/24 10:37:12;;;;;;;11.15;7.53;;;;;;;33.20;30.66;94817.13;5069664;28;20568;-62
2022/07/24 10:39:57;;;;;;;18.50;11.55;;;;;;;33.48;30.85;94821.81;5060001;28;20277;-62
2022/07/24 10:42:22;;;;;;;13.13;8.15;;;;;;;33.50;30.05;94815.25;5070623;28;20269;-62
2022/07/24 10:45:17;;;;;;;10.93;8.05;;;;;;;33.94;31.55;94783.69;5070598;28;20598;-61
2022/07/24 10:47:44;;;;;;;9.18;7.65;;;;;;;34.45;31.20;94771.81;5070280;28;20201;-63
2022/07/24 10:50:10;;;;;;;11.02;7.65;;;;;;;34.66;30.29;94802.31;5052697;28;20215;-64
2022/07/24 10:52:41;;;;;;;13.32;7.57;;;;;;;34.56;30.71;94783.88;5070160;28;20262;-64
2022/07/24 10:55:32;;;;;;;11.93;7.13;;;;;;;34.63;29.49;94797.59;5052075;28;20307;-64
2022/07/24 10:58:01;;;;;;;11.68;8.20;;;;;;;34.40;29.12;94798.25;5070075;28;20185;-63
2022/07/24 11:00:32;;;;;;;9.38;7.25;;;;;;;34.39;27.76;94817.81;5069939;28;20201;-64
2022/07/24 11:03:04;;;;;;;11.52;7.68;;;;;;;34.64;27.91;94801.03;5069926;28;20215;-63
2022/07/24 11:05:31;;;;;;;15.43;11.63;;;;;;;34.74;27.90;94805.44;5070250;28;20244;-64
2022/07/24 11:08:12;;;;;;;9.40;6.95;;;;;;;35.20;28.70;94773.06;5070018;28;20199;-65
2022/07/24 11:10:52;;;;;;;11.07;6.95;;;;;;;35.47;27.59;94796.38;5069831;28;20252;-64
2022/07/24 11:13:33;;;;;;;13.73;7.63;;;;;;;35.44;27.19;94788.94;5069770;28;20203;-64
2022/07/24 11:16:10;;;;;;;9.57;6.85;;;;;;;35.52;27.79;94767.19;5068125;28;20216;-63
2022/07/24 11:18:59;;;;;;;9.63;6.85;;;;;;;35.31;27.24;94765.81;5070086;28;20215;-65
2022/07/24 11:21:28;;;;;;;11.15;7.05;;;;;;;34.83;27.47;94766.78;5022946;28;20754;-64
2022/07/24 11:24:20;;;;;;;14.73;6.88;;;;;;;35.15;27.94;94761.75;5070016;28;20221;-64
2022/07/24 11:26:54;;;;;;;8.20;7.18;;;;;;;35.42;27.31;94762.78;5061162;28;20718;-64